Time;durP1;ratioP1;P1;durP2;ratioP2;P2;SDS_P1;SDS_P2;PMS_P1;PMS_P2;Temp;Humidity;BMP_temperature;BMP_pressure;BME280_temperature;BME280_humidity;BME280_pressure;Samples;Min_cycle;Max_cycle;Signal;HPM_P1;HPM_P2
2022/09/08 00:02:24;;;;;;;7.20;4.40;;;;;;;;;;5007747;28;20200;-62
2022/09/08 00:04:50;;;;;;;7.00;3.73;;;;;;;;;;5007515;28;20589;-62
2022/09/08 00:07:18;;;;;;;7.10;3.60;;;;;;;;;;5008337;28;20200;-62
2022/09/08 00:09:45;;;;;;;8.03;3.67;;;;;;;;;;5009206;28;20269;-62
2022/09/08 00:12:12;;;;;;;5.90;3.33;;;;;;;;;;5008680;28;20218;-62
2022/09/08 00:14:39;;;;;;;6.47;3.80;;;;;;;;;;4990439;28;20215;-63
2022/09/08 00:17:06;;;;;;;8.10;3.60;;;;;;;;;;5008115;28;20193;-62
2022/09/08 00:19:32;;;;;;;5.77;3.53;;;;;;;;;;5007806;28;20196;-62
2022/09/08 00:21:59;;;;;;;4.87;3.37;;;;;;;;;;5008694;28;20668;-62
2022/09/08 00:24:26;;;;;;;5.33;3.40;;;;;;;;;;5008422;28;20224;-63
2022/09/08 00:26:53;;;;;;;6.50;3.33;;;;;;;;;;5007738;28;20184;-62
2022/09/08 00:29:19;;;;;;;5.77;3.17;;;;;;;;;;5007789;28;20668;-62
2022/09/08 00:31:46;;;;;;;6.53;3.00;;;;;;;;;;5008134;28;20211;-62
2022/09/08 00:34:13;;;;;;;3.03;2.40;;;;;;;;;;5007990;28;20192;-62
2022/09/08 00:36:40;;;;;;;4.83;2.77;;;;;;;;;;5008309;28;20653;-62
2022/09/08 00:39:06;;;;;;;7.63;3.10;;;;;;;;;;5008154;28;20235;-63
2022/09/08 00:41:33;;;;;;;7.07;2.97;;;;;;;;;;5007148;28;20286;-62
2022/09/08 00:44:38;;;;;;;4.40;3.17;;;;;;;;;;5008422;28;20219;-62
2022/09/08 00:47:15;;;;;;;4.33;3.07;;;;;;;;;;5007907;28;20196;-62
2022/09/08 00:49:42;;;;;;;4.57;2.80;;;;;;;;;;5008384;28;20314;-62
2022/09/08 00:52:10;;;;;;;6.47;3.00;;;;;;;;;;5006892;28;20191;-62
2022/09/08 00:54:37;;;;;;;4.47;2.97;;;;;;;;;;5007543;28;20204;-63
2022/09/08 00:57:21;;;;;;;4.43;3.27;;;;;;;;;;4993100;28;20180;-62
2022/09/08 00:59:48;;;;;;;6.40;3.47;;;;;;;;;;5008229;28;20254;-62
2022/09/08 01:02:24;;;;;;;4.47;2.80;;;;;;;;;;4990074;28;20294;-63
2022/09/08 01:04:52;;;;;;;5.00;2.90;;;;;;;;;;5007231;28;20655;-62
2022/09/08 01:12:57;;;;;;;5.10;3.10;;;;;;;;;;5007929;28;20192;-62
2022/09/08 01:15:25;;;;;;;3.80;2.77;;;;;;;;;;5006594;28;20729;-62
2022/09/08 01:17:52;;;;;;;5.63;3.13;;;;;;;;;;5006944;28;20291;-62
2022/09/08 01:20:19;;;;;;;4.67;2.97;;;;;;;;;;5007247;28;20784;-62
2022/09/08 01:22:58;;;;;;;6.47;3.30;;;;;;;;;;4990367;28;20549;-62
2022/09/08 01:25:31;;;;;;;5.80;3.20;;;;;;;;;;5007968;28;20270;-62
2022/09/08 01:28:09;;;;;;;6.13;3.50;;;;;;;;;;5006672;28;20196;-64
2022/09/08 01:30:36;;;;;;;5.70;3.53;;;;;;;;;;5006397;28;20188;-62
2022/09/08 01:33:03;;;;;;;6.27;3.33;;;;;;;;;;4989520;28;20200;-62
2022/09/08 01:35:30;;;;;;;4.33;2.97;;;;;;;;;;5006035;28;20193;-62
2022/09/08 01:37:57;;;;;;;6.47;3.47;;;;;;;;;;5006757;28;20189;-64
2022/09/08 01:40:24;;;;;;;5.73;3.27;;;;;;;;;;4989050;28;20284;-62
2022/09/08 01:42:50;;;;;;;6.37;3.00;;;;;;;;;;5007395;28;20203;-62
2022/09/08 01:45:17;;;;;;;5.40;3.20;;;;;;;;;;5006732;28;20747;-63
2022/09/08 01:47:44;;;;;;;4.07;3.10;;;;;;;;;;5007368;28;20188;-62
2022/09/08 01:50:10;;;;;;;4.93;2.63;;;;;;;;;;5007322;28;20272;-63
2022/09/08 01:52:37;;;;;;;4.43;2.53;;;;;;;;;;5005844;28;20911;-63
2022/09/08 01:55:04;;;;;;;3.83;2.70;;;;;;;;;;5006534;28;20196;-62
2022/09/08 01:57:31;;;;;;;5.67;3.17;;;;;;;;;;5007022;28;20203;-62
2022/09/08 01:59:58;;;;;;;7.20;2.90;;;;;;;;;;5008616;28;20652;-62
2022/09/08 02:02:24;;;;;;;6.30;2.67;;;;;;;;;;5009559;28;20243;-62
2022/09/08 02:04:52;;;;;;;4.27;2.80;;;;;;;;;;5013482;28;20267;-62
2022/09/08 02:07:19;;;;;;;4.43;2.63;;;;;;;;;;5010606;28;20184;-62
2022/09/08 02:09:45;;;;;;;3.90;2.20;;;;;;;;;;5010613;28;20192;-62
2022/09/08 02:12:12;;;;;;;3.87;2.40;;;;;;;;;;4992928;28;20192;-62
2022/09/08 02:14:39;;;;;;;3.97;2.40;;;;;;;;;;5010281;28;20650;-62
2022/09/08 02:17:05;;;;;;;3.47;2.63;;;;;;;;;;5010210;28;20258;-63
2022/09/08 02:19:32;;;;;;;3.63;2.50;;;;;;;;;;5009569;28;20192;-63
2022/09/08 02:21:59;;;;;;;4.33;2.50;;;;;;;;;;4992084;28;20196;-63
2022/09/08 02:24:25;;;;;;;3.47;2.30;;;;;;;;;;5010058;28;20224;-62
2022/09/08 02:26:53;;;;;;;3.67;2.50;;;;;;;;;;5010024;28;20188;-63
2022/09/08 02:29:20;;;;;;;4.50;2.50;;;;;;;;;;5009814;28;20188;-62
2022/09/08 02:31:47;;;;;;;3.63;2.57;;;;;;;;;;5010097;28;20715;-62
2022/09/08 02:34:13;;;;;;;6.00;2.37;;;;;;;;;;5009378;28;20529;-62
2022/09/08 02:36:40;;;;;;;3.10;2.10;;;;;;;;;;5009776;28;20706;-63
2022/09/08 02:39:07;;;;;;;3.47;2.10;;;;;;;;;;5010581;28;20200;-63
2022/09/08 02:41:33;;;;;;;3.27;2.17;;;;;;;;;;5009649;28;20706;-63
2022/09/08 02:44:00;;;;;;;5.00;2.10;;;;;;;;;;5010121;28;20212;-63
2022/09/08 02:46:27;;;;;;;3.57;2.13;;;;;;;;;;5009875;28;20659;-63
2022/09/08 02:48:53;;;;;;;2.70;2.00;;;;;;;;;;5009888;28;20219;-63
2022/09/08 02:51:20;;;;;;;4.33;2.30;;;;;;;;;;4991928;28;20255;-63
2022/09/08 02:53:47;;;;;;;3.50;1.93;;;;;;;;;;5009847;28;20207;-63
2022/09/08 02:56:14;;;;;;;3.97;2.07;;;;;;;;;;5009657;28;20204;-63
2022/09/08 02:58:40;;;;;;;3.00;2.10;;;;;;;;;;4991672;28;20185;-63
2022/09/08 03:01:07;;;;;;;4.87;2.00;;;;;;;;;;5009292;28;20203;-63
2022/09/08 03:03:34;;;;;;;5.83;2.20;;;;;;;;;;5009242;28;21430;-63
2022/09/08 03:06:01;;;;;;;2.27;1.70;;;;;;;;;;5008779;28;20451;-63
2022/09/08 03:08:28;;;;;;;4.23;2.20;;;;;;;;;;5009317;28;20279;-63
2022/09/08 03:10:54;;;;;;;3.27;1.90;;;;;;;;;;5009022;28;20250;-63
2022/09/08 03:13:21;;;;;;;2.53;2.07;;;;;;;;;;5008978;28;20605;-63
2022/09/08 03:15:49;;;;;;;5.67;2.40;;;;;;;;;;5009628;28;20745;-63
2022/09/08 03:18:15;;;;;;;6.93;2.10;;;;;;;;;;5009692;28;20204;-63
2022/09/08 03:20:43;;;;;;;3.10;2.10;;;;;;;;;;5009424;28;20238;-63
2022/09/08 03:23:18;;;;;;;3.00;1.90;;;;;;;;;;5007604;28;20200;-63
2022/09/08 03:25:46;;;;;;;3.50;1.87;;;;;;;;;;5006254;28;20516;-64
2022/09/08 03:28:19;;;;;;;5.67;2.17;;;;;;;;;;5010712;28;20191;-63
2022/09/08 03:30:46;;;;;;;4.23;2.13;;;;;;;;;;5011657;28;20196;-64
2022/09/08 03:33:13;;;;;;;4.70;2.03;;;;;;;;;;5009870;28;20198;-63
2022/09/08 03:35:40;;;;;;;3.50;1.93;;;;;;;;;;5009988;28;20189;-63
2022/09/08 03:38:06;;;;;;;3.80;2.27;;;;;;;;;;4992216;28;20196;-63
2022/09/08 03:40:34;;;;;;;2.87;2.00;;;;;;;;;;5009437;28;20196;-62
2022/09/08 03:43:00;;;;;;;4.33;2.27;;;;;;;;;;5009471;28;20247;-62
2022/09/08 03:45:28;;;;;;;3.50;2.30;;;;;;;;;;5009874;28;20570;-62
2022/09/08 03:47:55;;;;;;;3.57;1.97;;;;;;;;;;5009583;28;20195;-62
2022/09/08 03:50:22;;;;;;;3.90;2.00;;;;;;;;;;5009275;28;20306;-61
2022/09/08 03:52:49;;;;;;;4.20;2.43;;;;;;;;;;5009156;28;20664;-61
2022/09/08 03:55:15;;;;;;;4.93;1.77;;;;;;;;;;5009634;28;20723;-64
2022/09/08 03:57:42;;;;;;;3.47;2.03;;;;;;;;;;5009334;28;20243;-61
2022/09/08 04:00:09;;;;;;;4.50;1.87;;;;;;;;;;5008847;28;20189;-61
2022/09/08 04:02:39;;;;;;;6.80;1.90;;;;;;;;;;5008842;28;20211;-63
2022/09/08 04:05:06;;;;;;;2.93;1.70;;;;;;;;;;5008044;28;20228;-63
2022/09/08 04:07:34;;;;;;;7.20;2.60;;;;;;;;;;5009352;28;20696;-63
2022/09/08 04:10:01;;;;;;;4.90;2.43;;;;;;;;;;5009461;28;20552;-63
2022/09/08 04:12:36;;;;;;;3.23;1.80;;;;;;;;;;5009961;28;20713;-63
2022/09/08 04:15:04;;;;;;;5.63;2.00;;;;;;;;;;5009197;28;20192;-63
2022/09/08 04:17:30;;;;;;;6.10;2.03;;;;;;;;;;5009814;28;20934;-62
2022/09/08 04:19:57;;;;;;;4.23;1.83;;;;;;;;;;5009340;28;20435;-63
2022/09/08 04:22:24;;;;;;;5.07;1.77;;;;;;;;;;5008786;28;20283;-63
2022/09/08 04:24:51;;;;;;;6.27;2.27;;;;;;;;;;5008743;28;20227;-62
2022/09/08 04:27:22;;;;;;;8.90;3.23;;;;;;;;;;4994455;28;20466;-64
2022/09/08 04:29:50;;;;;;;8.07;2.60;;;;;;;;;;5001009;28;20207;-64
2022/09/08 04:32:18;;;;;;;5.80;2.30;;;;;;;;;;4998129;28;20231;-63
2022/09/08 04:34:46;;;;;;;7.67;2.60;;;;;;;;;;4967989;28;20275;-63
2022/09/08 04:37:13;;;;;;;11.43;2.80;;;;;;;;;;4987719;28;20258;-62
2022/09/08 04:39:40;;;;;;;10.47;2.30;;;;;;;;;;4976776;28;20542;-62
2022/09/08 04:42:08;;;;;;;11.40;2.50;;;;;;;;;;5009237;28;20191;-62
2022/09/08 04:44:34;;;;;;;6.47;2.40;;;;;;;;;;5009097;28;20227;-62
2022/09/08 04:47:01;;;;;;;6.43;2.20;;;;;;;;;;5008461;28;20529;-62
2022/09/08 04:49:28;;;;;;;12.97;2.20;;;;;;;;;;5009101;28;20200;-61
2022/09/08 04:51:55;;;;;;;5.87;2.30;;;;;;;;;;5009092;28;20191;-62
2022/09/08 04:54:22;;;;;;;11.80;3.33;;;;;;;;;;5007908;28;20596;-62
2022/09/08 04:56:49;;;;;;;6.50;2.20;;;;;;;;;;5008879;28;20203;-62
2022/09/08 04:59:17;;;;;;;9.73;2.47;;;;;;;;;;5007628;28;20192;-61
2022/09/08 05:01:44;;;;;;;11.13;3.03;;;;;;;;;;5001353;28;20219;-65
2022/09/08 05:04:10;;;;;;;21.87;3.40;;;;;;;;;;5001760;28;20231;-65
2022/09/08 05:06:37;;;;;;;13.87;2.77;;;;;;;;;;5004995;28;20210;-65
2022/09/08 05:09:04;;;;;;;13.17;3.27;;;;;;;;;;5002989;28;20200;-64
2022/09/08 05:11:31;;;;;;;18.30;3.20;;;;;;;;;;5001619;28;20216;-63
2022/09/08 05:13:58;;;;;;;12.17;3.70;;;;;;;;;;5001922;28;20202;-62
2022/09/08 05:16:26;;;;;;;11.70;3.07;;;;;;;;;;5002879;28;20192;-63
2022/09/08 05:18:57;;;;;;;8.50;3.30;;;;;;;;;;4999870;28;20251;-64
2022/09/08 05:21:24;;;;;;;11.43;3.10;;;;;;;;;;5002802;28;20215;-64
2022/09/08 05:23:51;;;;;;;6.17;2.87;;;;;;;;;;5005045;28;20198;-65
2022/09/08 05:26:19;;;;;;;6.60;2.70;;;;;;;;;;5005337;28;20204;-63
2022/09/08 05:28:46;;;;;;;7.40;2.67;;;;;;;;;;5006720;28;20192;-64
2022/09/08 05:31:21;;;;;;;5.60;2.70;;;;;;;;;;5007522;28;20655;-63
2022/09/08 05:33:48;;;;;;;5.00;2.23;;;;;;;;;;5008369;28;20192;-62
2022/09/08 05:36:15;;;;;;;6.07;3.30;;;;;;;;;;4992843;28;20196;-63
2022/09/08 05:38:42;;;;;;;2.87;2.33;;;;;;;;;;5011432;28;20280;-63
2022/09/08 05:41:09;;;;;;;3.57;2.37;;;;;;;;;;5011316;28;20250;-62
2022/09/08 05:43:37;;;;;;;5.47;2.43;;;;;;;;;;5010874;28;20203;-65
2022/09/08 05:46:04;;;;;;;6.00;2.57;;;;;;;;;;5012144;28;20192;-64
2022/09/08 05:48:31;;;;;;;6.27;2.17;;;;;;;;;;5012755;28;20270;-64
2022/09/08 05:50:57;;;;;;;6.83;2.50;;;;;;;;;;5011079;28;20642;-64
2022/09/08 05:53:24;;;;;;;4.50;2.07;;;;;;;;;;5012248;28;20188;-63
2022/09/08 05:55:55;;;;;;;3.27;2.10;;;;;;;;;;5011975;28;20188;-64
2022/09/08 05:58:22;;;;;;;3.93;2.10;;;;;;;;;;5011956;28;20191;-64
2022/09/08 06:00:54;;;;;;;4.87;2.10;;;;;;;;;;5012136;28;20192;-65
2022/09/08 06:03:21;;;;;;;2.60;1.90;;;;;;;;;;5011932;28;20245;-65
2022/09/08 06:05:48;;;;;;;1.67;1.57;;;;;;;;;;5011498;28;20350;-65
2022/09/08 06:08:15;;;;;;;1.83;1.53;;;;;;;;;;5009807;28;20196;-63
2022/09/08 06:10:41;;;;;;;3.90;1.43;;;;;;;;;;5011668;28;20559;-62
2022/09/08 06:13:14;;;;;;;2.33;1.10;;;;;;;;;;5011406;28;20254;-64
2022/09/08 06:15:40;;;;;;;5.00;1.53;;;;;;;;;;5011583;28;20725;-64
2022/09/08 06:18:07;;;;;;;2.50;1.30;;;;;;;;;;5011599;28;20197;-62
2022/09/08 06:20:35;;;;;;;3.37;1.17;;;;;;;;;;5010941;28;20200;-63
2022/09/08 06:23:01;;;;;;;5.10;1.50;;;;;;;;;;5011517;28;20283;-63
2022/09/08 06:25:28;;;;;;;2.43;1.40;;;;;;;;;;5010308;28;20701;-63
2022/09/08 06:27:55;;;;;;;3.90;1.07;;;;;;;;;;5011118;28;20632;-63
2022/09/08 06:30:22;;;;;;;3.77;1.40;;;;;;;;;;5011132;28;20238;-63
2022/09/08 06:33:08;;;;;;;4.50;1.57;;;;;;;;;;5011674;28;20188;-62
2022/09/08 06:35:38;;;;;;;2.50;1.47;;;;;;;;;;5003827;28;20184;-63
2022/09/08 06:38:25;;;;;;;4.27;1.17;;;;;;;;;;5011264;28;20188;-63
2022/09/08 06:40:59;;;;;;;2.47;1.03;;;;;;;;;;5008404;28;20203;-63
2022/09/08 06:43:31;;;;;;;7.37;2.03;;;;;;;;;;5010098;28;20258;-63
2022/09/08 06:45:58;;;;;;;2.67;1.40;;;;;;;;;;4992842;28;20220;-63
2022/09/08 06:48:31;;;;;;;4.43;1.40;;;;;;;;;;5011214;28;20195;-62
2022/09/08 06:51:10;;;;;;;4.13;1.40;;;;;;;;;;4995567;28;20204;-62
2022/09/08 06:53:59;;;;;;;2.80;1.10;;;;;;;;;;5001931;28;20203;-62
2022/09/08 06:56:38;;;;;;;3.03;1.00;;;;;;;;;;5003674;28;20220;-63
2022/09/08 06:59:44;;;;;;;1.50;0.90;;;;;;;;;;5004295;28;20199;-62
2022/09/08 07:02:30;;;;;;;1.97;1.10;;;;;;;;;;5005173;28;20599;-64
2022/09/08 07:05:02;;;;;;;4.87;1.80;;;;;;;;;;5003458;28;20319;-64
2022/09/08 07:07:35;;;;;;;4.93;1.87;;;;;;;;;;5002937;28;20656;-61
2022/09/08 07:10:03;;;;;;;2.43;1.33;;;;;;;;;;5004437;28;20192;-63
2022/09/08 07:12:35;;;;;;;4.93;1.30;;;;;;;;;;5004191;28;20267;-65
2022/09/08 07:15:20;;;;;;;7.70;1.70;;;;;;;;;;5003226;28;20215;-61
2022/09/08 07:17:52;;;;;;;7.60;1.73;;;;;;;;;;5004326;28;20195;-61
2022/09/08 07:20:20;;;;;;;3.20;1.30;;;;;;;;;;5002017;28;20270;-61
2022/09/08 07:22:46;;;;;;;2.07;1.20;;;;;;;;;;5003569;28;20290;-62
2022/09/08 07:25:13;;;;;;;3.00;1.10;;;;;;;;;;5003551;28;20311;-62
2022/09/08 07:27:40;;;;;;;3.43;1.20;;;;;;;;;;5004792;28;20188;-61
2022/09/08 07:30:11;;;;;;;1.50;1.00;;;;;;;;;;4986520;28;20283;-62
2022/09/08 07:32:38;;;;;;;2.43;1.10;;;;;;;;;;4985637;28;20259;-61
2022/09/08 07:35:47;;;;;;;4.10;1.20;;;;;;;;;;5003246;28;20651;-63
2022/09/08 07:38:16;;;;;;;1.83;1.17;;;;;;;;;;4993844;28;20216;-62
2022/09/08 07:40:44;;;;;;;3.63;1.20;;;;;;;;;;5003678;28;20196;-64
2022/09/08 07:43:11;;;;;;;3.33;1.23;;;;;;;;;;5004242;28;20541;-62
2022/09/08 07:45:44;;;;;;;2.97;1.10;;;;;;;;;;5002244;28;20887;-62
2022/09/08 07:48:23;;;;;;;3.97;1.30;;;;;;;;;;5003630;28;20200;-64
2022/09/08 07:51:00;;;;;;;3.83;1.33;;;;;;;;;;5001309;28;20196;-62
2022/09/08 07:53:33;;;;;;;2.13;1.17;;;;;;;;;;4984805;28;21095;-63
2022/09/08 07:56:21;;;;;;;4.23;1.20;;;;;;;;;;5002076;28;20246;-60
2022/09/08 07:58:54;;;;;;;8.07;1.40;;;;;;;;;;5001814;28;20231;-60
2022/09/08 08:01:27;;;;;;;5.50;1.17;;;;;;;;;;5001134;28;20247;-61
2022/09/08 08:03:54;;;;;;;1.10;1.00;;;;;;;;;;5002388;28;20200;-62
2022/09/08 08:06:34;;;;;;;8.73;1.60;;;;;;;;;;5002172;28;20230;-61
2022/09/08 08:09:08;;;;;;;4.47;1.20;;;;;;;;;;5002784;28;20199;-61
2022/09/08 08:11:44;;;;;;;5.20;1.40;;;;;;;;;;5001911;28;20200;-62
2022/09/08 08:14:24;;;;;;;3.27;1.10;;;;;;;;;;4984576;28;20200;-62
2022/09/08 08:16:51;;;;;;;4.17;0.90;;;;;;;;;;5001013;28;20198;-62
2022/09/08 08:19:37;;;;;;;2.87;1.13;;;;;;;;;;5000978;28;20288;-61
2022/09/08 08:22:05;;;;;;;4.13;1.27;;;;;;;;;;5001283;28;20198;-62
2022/09/08 08:24:38;;;;;;;3.13;1.20;;;;;;;;;;5001397;28;20252;-61
2022/09/08 08:27:23;;;;;;;3.87;1.10;;;;;;;;;;4983643;28;20205;-61
2022/09/08 08:30:11;;;;;;;3.13;1.00;;;;;;;;;;5001299;28;20208;-61
2022/09/08 08:33:01;;;;;;;4.60;1.20;;;;;;;;;;4984035;28;20192;-61
2022/09/08 08:35:29;;;;;;;3.90;1.00;;;;;;;;;;4981892;28;21260;-60
2022/09/08 08:37:56;;;;;;;3.20;0.90;;;;;;;;;;5000539;28;20184;-61
2022/09/08 08:40:30;;;;;;;1.53;1.10;;;;;;;;;;5001096;28;20627;-60
2022/09/08 08:42:56;;;;;;;3.43;1.27;;;;;;;;;;4985780;28;20228;-62
2022/09/08 08:45:24;;;;;;;3.13;1.10;;;;;;;;;;5002030;28;20295;-61
2022/09/08 08:48:07;;;;;;;1.93;1.43;;;;;;;;;;5003504;28;20211;-62
2022/09/08 08:50:53;;;;;;;3.40;1.40;;;;;;;;;;5000633;28;20195;-60
2022/09/08 08:53:30;;;;;;;3.53;1.30;;;;;;;;;;5001383;28;20215;-61
2022/09/08 08:56:34;;;;;;;1.73;1.13;;;;;;;;;;4993146;28;20202;-61
2022/09/08 08:59:21;;;;;;;3.33;1.20;;;;;;;;;;4986620;28;20624;-61
2022/09/08 09:01:54;;;;;;;1.53;1.10;;;;;;;;;;4974841;28;20604;-62
2022/09/08 09:04:40;;;;;;;3.40;1.30;;;;;;;;;;4998635;28;20716;-61
2022/09/08 09:07:16;;;;;;;3.07;1.23;;;;;;;;;;4999573;28;21028;-61
2022/09/08 09:09:44;;;;;;;3.17;1.20;;;;;;;;;;5002880;28;20204;-60
2022/09/08 09:12:23;;;;;;;3.97;1.20;;;;;;;;;;4992273;28;20205;-60
2022/09/08 09:14:55;;;;;;;3.53;1.20;;;;;;;;;;5005008;28;20843;-61
2022/09/08 09:18:04;;;;;;;3.97;1.20;;;;;;;;;;5005327;28;20296;-60
2022/09/08 09:20:50;;;;;;;2.43;1.20;;;;;;;;;;5003558;28;20682;-61
2022/09/08 09:23:24;;;;;;;2.90;0.90;;;;;;;;;;5005011;28;20203;-60
2022/09/08 09:25:58;;;;;;;4.43;1.00;;;;;;;;;;5004889;28;20801;-61
2022/09/08 09:28:43;;;;;;;4.53;1.23;;;;;;;;;;5006212;28;20988;-62
2022/09/08 09:31:13;;;;;;;2.93;1.23;;;;;;;;;;5004259;28;20195;-61
2022/09/08 09:33:47;;;;;;;2.93;1.10;;;;;;;;;;5005418;28;20260;-60
2022/09/08 09:36:18;;;;;;;3.67;0.97;;;;;;;;;;5004331;28;20245;-60
2022/09/08 09:39:02;;;;;;;2.70;1.13;;;;;;;;;;5004403;28;20237;-60
2022/09/08 09:41:35;;;;;;;3.70;1.10;;;;;;;;;;5003485;28;20251;-61
2022/09/08 09:44:07;;;;;;;3.20;1.00;;;;;;;;;;4984630;28;20233;-61
2022/09/08 09:46:34;;;;;;;2.10;1.03;;;;;;;;;;5004984;28;20247;-63
2022/09/08 09:49:04;;;;;;;3.33;1.20;;;;;;;;;;5003085;28;20192;-62
2022/09/08 09:51:52;;;;;;;2.33;1.00;;;;;;;;;;5006174;28;20211;-62
2022/09/08 09:54:20;;;;;;;2.20;0.80;;;;;;;;;;5005532;28;20211;-62
2022/09/08 09:56:53;;;;;;;1.77;1.03;;;;;;;;;;5006358;28;20205;-62
2022/09/08 09:59:48;;;;;;;1.93;1.40;;;;;;;;;;5004143;28;20656;-61
2022/09/08 10:02:23;;;;;;;2.17;1.27;;;;;;;;;;5004542;28;20224;-61
2022/09/08 10:05:09;;;;;;;7.03;1.10;;;;;;;;;;5003155;28;20773;-49
2022/09/08 10:07:54;;;;;;;2.83;1.00;;;;;;;;;;5006418;28;20288;-49
2022/09/08 10:10:50;;;;;;;3.30;1.03;;;;;;;;;;5004363;28;20188;-51
2022/09/08 10:13:26;;;;;;;4.40;1.10;;;;;;;;;;4950431;28;20305;-48
2022/09/08 10:16:05;;;;;;;2.37;1.07;;;;;;;;;;5004376;28;20222;-49
2022/09/08 10:18:51;;;;;;;2.53;1.23;;;;;;;;;;5004665;28;20707;-61
2022/09/08 10:21:20;;;;;;;7.80;1.40;;;;;;;;;;5003763;28;20195;-51
2022/09/08 10:24:06;;;;;;;4.30;1.00;;;;;;;;;;5002524;28;20572;-48
2022/09/08 10:26:52;;;;;;;6.23;1.40;;;;;;;;;;5004899;28;20533;-55
2022/09/08 10:29:21;;;;;;;25.40;4.57;;;;;;;;;;5003649;28;20206;-50
2022/09/08 10:32:08;;;;;;;4.80;1.10;;;;;;;;;;5004427;28;20197;-53
2022/09/08 10:34:45;;;;;;;3.70;1.10;;;;;;;;;;5002708;28;20206;-60
2022/09/08 10:37:32;;;;;;;2.97;1.30;;;;;;;;;;5003153;28;20225;-61
2022/09/08 10:40:18;;;;;;;3.43;1.03;;;;;;;;;;5004002;28;20660;-61
2022/09/08 10:42:45;;;;;;;1.63;1.00;;;;;;;;;;5003374;28;20200;-61
2022/09/08 10:45:33;;;;;;;2.00;1.00;;;;;;;;;;5004134;28;20191;-61
2022/09/08 10:48:08;;;;;;;4.50;1.30;;;;;;;;;;5001228;28;20202;-61
2022/09/08 10:50:35;;;;;;;4.40;1.00;;;;;;;;;;5002476;28;20199;-61
2022/09/08 10:53:11;;;;;;;2.87;0.93;;;;;;;;;;5001495;28;20278;-58
2022/09/08 10:55:47;;;;;;;18.83;2.97;;;;;;;;;;5004549;28;20233;-55
2022/09/08 10:58:26;;;;;;;5.17;1.30;;;;;;;;;;5004091;28;20200;-59
2022/09/08 11:00:56;;;;;;;2.63;1.10;;;;;;;;;;4977567;28;20750;-63
2022/09/08 11:03:35;;;;;;;7.97;1.20;;;;;;;;;;5004533;28;20194;-61
2022/09/08 11:06:15;;;;;;;6.63;1.60;;;;;;;;;;5002507;28;20220;-64
2022/09/08 11:08:49;;;;;;;4.20;1.50;;;;;;;;;;5002586;28;20197;-62
2022/09/08 11:11:16;;;;;;;3.43;1.33;;;;;;;;;;5003154;28;20682;-56
2022/09/08 11:13:52;;;;;;;5.40;1.40;;;;;;;;;;5003329;28;20905;-61
2022/09/08 11:16:21;;;;;;;2.80;1.23;;;;;;;;;;5002596;28;20567;-61
2022/09/08 11:19:23;;;;;;;3.50;1.33;;;;;;;;;;5003406;28;20190;-60
2022/09/08 11:22:14;;;;;;;4.97;1.50;;;;;;;;;;4960859;28;20219;-62
2022/09/08 11:24:52;;;;;;;9.00;2.40;;;;;;;;;;4979793;28;20745;-61
2022/09/08 11:27:34;;;;;;;2.57;1.17;;;;;;;;;;4998256;28;20209;-60
2022/09/08 11:30:11;;;;;;;1.70;1.30;;;;;;;;;;5002712;28;20239;-61
2022/09/08 11:33:02;;;;;;;5.03;1.10;;;;;;;;;;5002106;28;20195;-62
2022/09/08 11:35:29;;;;;;;3.57;1.40;;;;;;;;;;4994051;28;20199;-62
2022/09/08 11:38:00;;;;;;;2.87;1.10;;;;;;;;;;5002658;28;20204;-61
2022/09/08 11:40:27;;;;;;;2.77;1.00;;;;;;;;;;5002232;28;20311;-61
2022/09/08 11:43:17;;;;;;;2.20;1.00;;;;;;;;;;5001424;28;20965;-61
2022/09/08 11:45:49;;;;;;;4.27;1.10;;;;;;;;;;4996497;28;20235;-62
2022/09/08 11:48:16;;;;;;;2.17;0.80;;;;;;;;;;5001609;28;20199;-60
2022/09/08 11:50:46;;;;;;;2.70;1.10;;;;;;;;;;5001407;28;20231;-58
2022/09/08 11:53:44;;;;;;;4.50;1.20;;;;;;;;;;4984128;28;20320;-53
2022/09/08 11:56:50;;;;;;;1.23;0.80;;;;;;;;;;4954393;28;20219;-57
2022/09/08 11:59:35;;;;;;;3.73;1.10;;;;;;;;;;5000469;28;20212;-53
2022/09/08 12:02:06;;;;;;;2.90;1.23;;;;;;;;;;5003904;28;20855;-56
2022/09/08 12:04:41;;;;;;;1.53;1.30;;;;;;;;;;4983470;28;20247;-53
2022/09/08 12:07:27;;;;;;;7.27;1.60;;;;;;;;;;4982358;28;20204;-54
2022/09/08 12:10:00;;;;;;;2.57;1.00;;;;;;;;;;4982626;28;20224;-54
2022/09/08 12:12:29;;;;;;;1.87;1.00;;;;;;;;;;4982280;28;20207;-56
2022/09/08 12:15:19;;;;;;;5.97;1.30;;;;;;;;;;4983346;28;20196;-52
2022/09/08 12:17:49;;;;;;;2.37;1.10;;;;;;;;;;4998493;28;20201;-56
2022/09/08 12:20:34;;;;;;;7.90;1.40;;;;;;;;;;4982727;28;20358;-62
2022/09/08 12:23:20;;;;;;;4.37;1.47;;;;;;;;;;4983747;28;20676;-63
2022/09/08 12:26:05;;;;;;;3.40;1.20;;;;;;;;;;4981425;28;20241;-62
2022/09/08 12:29:03;;;;;;;2.27;1.30;;;;;;;;;;4982762;28;20205;-61
2022/09/08 12:31:33;;;;;;;5.67;1.50;;;;;;;;;;4981961;28;20197;-60
2022/09/08 12:34:09;;;;;;;6.23;1.60;;;;;;;;;;4983726;28;20235;-62
2022/09/08 12:36:44;;;;;;;3.00;1.40;;;;;;;;;;4982844;28;20204;-61
2022/09/08 12:39:14;;;;;;;2.07;1.40;;;;;;;;;;4981161;28;20239;-61
2022/09/08 12:41:47;;;;;;;4.33;1.70;;;;;;;;;;4981897;28;20657;-61
2022/09/08 12:44:26;;;;;;;3.13;1.77;;;;;;;;;;4980476;28;20235;-61
2022/09/08 12:47:13;;;;;;;2.43;1.70;;;;;;;;;;4981680;28;20246;-64
2022/09/08 12:49:48;;;;;;;2.50;1.33;;;;;;;;;;4982737;28;20203;-62
2022/09/08 12:52:24;;;;;;;3.10;1.50;;;;;;;;;;4997426;28;20204;-63
2022/09/08 12:54:57;;;;;;;2.70;1.30;;;;;;;;;;4998518;28;20200;-62
2022/09/08 12:57:43;;;;;;;3.87;1.40;;;;;;;;;;4994306;28;20196;-63
2022/09/08 13:00:11;;;;;;;2.60;1.03;;;;;;;;;;4980136;28;20196;-64
2022/09/08 13:02:41;;;;;;;4.17;1.53;;;;;;;;;;4995973;28;20628;-62
2022/09/08 13:05:15;;;;;;;2.27;1.43;;;;;;;;;;4995656;28;20232;-62
2022/09/08 13:08:00;;;;;;;2.80;1.40;;;;;;;;;;5001477;28;20238;-62
2022/09/08 13:10:32;;;;;;;2.40;1.20;;;;;;;;;;5001001;28;21064;-63
2022/09/08 13:13:18;;;;;;;5.70;1.60;;;;;;;;;;5002376;28;20196;-60
2022/09/08 13:15:47;;;;;;;1.67;1.30;;;;;;;;;;5003183;28;20273;-62
2022/09/08 13:18:29;;;;;;;1.93;1.17;;;;;;;;;;5000700;28;20196;-62
2022/09/08 13:21:16;;;;;;;4.83;1.43;;;;;;;;;;5000508;28;20685;-62
2022/09/08 13:23:49;;;;;;;4.20;1.40;;;;;;;;;;4996725;28;20208;-62
2022/09/08 13:26:18;;;;;;;2.17;1.20;;;;;;;;;;5002613;28;20216;-62
2022/09/08 13:29:04;;;;;;;4.67;1.20;;;;;;;;;;5000798;28;20564;-64
2022/09/08 13:31:51;;;;;;;2.27;1.27;;;;;;;;;;4987273;28;20616;-62
2022/09/08 13:34:22;;;;;;;2.70;1.30;;;;;;;;;;5000711;28;20203;-62
2022/09/08 13:36:55;;;;;;;2.13;1.13;;;;;;;;;;5003216;28;20210;-62
2022/09/08 13:39:40;;;;;;;1.90;1.20;;;;;;;;;;5000379;28;20200;-60
2022/09/08 13:42:24;;;;;;;13.33;2.00;;;;;;;;;;4999905;28;20188;-61
2022/09/08 13:45:31;;;;;;;3.03;1.23;;;;;;;;;;5000333;28;20195;-61
2022/09/08 13:48:01;;;;;;;3.17;1.17;;;;;;;;;;5000887;28;20305;-61
2022/09/08 13:50:47;;;;;;;2.20;1.20;;;;;;;;;;5008308;28;20255;-60
2022/09/08 13:53:20;;;;;;;2.37;1.13;;;;;;;;;;5005883;28;21043;-60
2022/09/08 13:55:47;;;;;;;4.33;1.40;;;;;;;;;;5001503;28;20188;-60
2022/09/08 13:58:34;;;;;;;2.63;1.10;;;;;;;;;;5004638;28;20199;-62
2022/09/08 14:01:05;;;;;;;3.20;0.90;;;;;;;;;;5004522;28;20199;-61
2022/09/08 14:03:34;;;;;;;2.93;1.00;;;;;;;;;;5005641;28;20540;-61
2022/09/08 14:06:01;;;;;;;1.63;0.97;;;;;;;;;;5008483;28;20280;-61
2022/09/08 14:08:29;;;;;;;2.23;1.20;;;;;;;;;;5011436;28;20208;-60
2022/09/08 14:11:08;;;;;;;1.43;0.70;;;;;;;;;;5009974;28;20242;-60
2022/09/08 14:13:36;;;;;;;2.80;1.07;;;;;;;;;;5010891;28;20184;-60
2022/09/08 14:16:09;;;;;;;8.57;1.87;;;;;;;;;;5011437;28;20246;-60
2022/09/08 14:18:48;;;;;;;2.80;1.27;;;;;;;;;;4993771;28;20207;-60
2022/09/08 14:21:15;;;;;;;1.47;1.07;;;;;;;;;;5010973;28;20582;-60
2022/09/08 14:23:48;;;;;;;2.53;1.00;;;;;;;;;;5010718;28;20195;-60
2022/09/08 14:26:22;;;;;;;2.80;0.97;;;;;;;;;;5010911;28;20263;-60
2022/09/08 14:28:51;;;;;;;2.13;0.90;;;;;;;;;;5010469;28;20226;-60
2022/09/08 14:31:29;;;;;;;2.70;0.80;;;;;;;;;;5011334;28;20199;-60
2022/09/08 14:33:59;;;;;;;7.53;5.50;;;;;;;;;;4992422;28;20235;-60
2022/09/08 14:36:35;;;;;;;7.03;2.27;;;;;;;;;;4993196;28;20196;-60
2022/09/08 14:39:07;;;;;;;4.67;2.00;;;;;;;;;;5010334;28;20200;-60
2022/09/08 14:41:44;;;;;;;3.30;1.53;;;;;;;;;;4994067;28;20194;-60
2022/09/08 14:44:30;;;;;;;2.43;1.17;;;;;;;;;;4994147;28;20206;-60
2022/09/08 14:47:02;;;;;;;2.47;0.90;;;;;;;;;;5010776;28;20212;-60
2022/09/08 14:49:33;;;;;;;3.80;1.67;;;;;;;;;;5010520;28;20207;-65
2022/09/08 14:52:00;;;;;;;11.20;4.63;;;;;;;;;;4993467;28;20192;-60
2022/09/08 14:54:27;;;;;;;5.77;1.70;;;;;;;;;;5010231;28;20196;-60
2022/09/08 14:57:12;;;;;;;11.57;2.20;;;;;;;;;;5009469;28;20218;-61
2022/09/08 14:59:49;;;;;;;5.57;2.10;;;;;;;;;;5008074;28;20246;-60
2022/09/08 15:02:26;;;;;;;7.27;2.30;;;;;;;;;;5006574;28;20691;-60
2022/09/08 15:04:54;;;;;;;5.77;4.07;;;;;;;;;;5009164;28;20238;-60
2022/09/08 15:07:22;;;;;;;9.93;3.87;;;;;;;;;;4992312;28;20204;-61
2022/09/08 15:09:53;;;;;;;5.67;2.07;;;;;;;;;;5010331;28;20216;-60
2022/09/08 15:12:39;;;;;;;7.23;2.87;;;;;;;;;;4996810;28;20690;-61
2022/09/08 15:15:25;;;;;;;5.23;1.97;;;;;;;;;;5007449;28;20203;-61
2022/09/08 15:17:52;;;;;;;4.03;1.63;;;;;;;;;;5010404;28;20192;-60
2022/09/08 15:20:20;;;;;;;5.90;2.00;;;;;;;;;;4992545;28;20220;-61
2022/09/08 15:22:47;;;;;;;6.73;2.17;;;;;;;;;;4992452;28;20220;-60
2022/09/08 15:25:15;;;;;;;15.60;6.70;;;;;;;;;;5009763;28;20203;-60